Airfield :







YOU CAN JOIN US ON...

 
LOGIN :

Register | Disclaimer

   EN    FR    IT 

 









Legend :    VFR   Marginal VFR   IFR   Intensive IFR   Very Intensive IFR
Visi :
Ceiling :
>= 8 km
>= 3000ft
5 to 8 km
1000 to 3000 ft
1500m to 5 km
500 to 1000 ft
800 to 1500m
200 to 500 ft
< 800m
< 200 ft
Symbols :   Thunderstorms  Fog  Heavy snow  Heavy precipitations  Wind > 20 kt







- Airport Elevation : 603 ft
- IATA code : LEB


KLEB - Lebanon Municipal

CURRENT METAR :
  • 251328Z 00000KT 10SM FEW024 OVC030 09/02 A2995 RMK AO2 T00890017

EXPIRED METARs :
  • 251253Z 05003KT 10SM BKN027 09/02 A2995 RMK AO2 SLP143 T00890022
  • 251153Z 00000KT 10SM OVC028 07/03 A2995 RMK AO2 SLP143 T00670033 10078 20022 53021
  • 251138Z 00000KT 10SM BKN027 06/03 A2994 RMK AO2 T00560028
  • 251053Z 00000KT 10SM CLR 04/01 A2992 RMK AO2 SLP135 T00390011

TAF KLEB
Valid from the 25 at 12:00 until the 26 at 12:00 UTC


251120Z 2512/2612 32004KT P6SM BKN035
FM251800 31004KT P6SM SCT040
FM260400 00000KT P6SM BKN100
KZBW FIR / North America



MET'MAP, your aeronautical weather chart ! - Copyright ORBIFLY December 2007 - Disclaimer

ORBIFLY MET'MAP TEAM :

Programming & Development : Alexandra Zaïnal
Concept & Development : Baudouin d'Aumeries
Co-Development & Prog : Marc-Olivier Méhu
Technical & hardware support : Manuel Goepfert

Contact : metmap@orbifly.com




SOURCES & CREDITS :

   NOAA